createdAt,value
2018-05-14T00:00:38.629Z,9.50
2018-05-14T00:03:06.665Z,9.60
2018-05-14T00:05:34.709Z,9.50
2018-05-14T00:08:03.138Z,9.50
2018-05-14T00:10:31.193Z,9.40
2018-05-14T00:12:59.257Z,9.50
2018-05-14T00:15:27.764Z,9.50
2018-05-14T00:17:55.823Z,9.50
2018-05-14T00:20:23.900Z,9.50
2018-05-14T00:22:52.171Z,9.60
2018-05-14T00:25:20.217Z,9.60
2018-05-14T00:27:48.294Z,9.60
2018-05-14T00:30:16.462Z,9.50
2018-05-14T00:32:44.512Z,9.40
2018-05-14T00:35:12.608Z,9.40
2018-05-14T00:37:41.208Z,9.50
2018-05-14T00:40:09.337Z,9.40
2018-05-14T00:42:37.360Z,9.30
2018-05-14T00:45:05.728Z,9.40
2018-05-14T00:47:34.280Z,9.30
2018-05-14T00:50:02.344Z,9.30
2018-05-14T00:52:30.584Z,9.30
2018-05-14T00:55:10.495Z,9.30
2018-05-14T00:57:39.002Z,9.30
2018-05-14T01:00:07.052Z,9.40
2018-05-14T01:02:35.124Z,9.50
2018-05-14T01:05:03.551Z,9.40
2018-05-14T01:07:32.364Z,9.40
2018-05-14T01:10:00.415Z,9.30
2018-05-14T01:12:29.576Z,9.30
2018-05-14T01:14:57.633Z,9.30
2018-05-14T01:17:25.685Z,9.30
2018-05-14T01:19:54.104Z,9.20
2018-05-14T01:22:22.171Z,9.20
2018-05-14T01:24:55.927Z,9.10
2018-05-14T01:27:24.449Z,9.00
2018-05-14T01:29:52.497Z,9.20
2018-05-14T01:32:20.569Z,9.20
2018-05-14T01:34:48.976Z,9.20
2018-05-14T01:37:17.029Z,9.20
2018-05-14T01:39:45.112Z,9.20
2018-05-14T01:42:13.209Z,9.20
2018-05-14T01:44:42.025Z,9.50
2018-05-14T01:47:10.101Z,9.40
2018-05-14T01:49:38.987Z,9.50
2018-05-14T01:52:07.009Z,9.60
2018-05-14T01:54:35.081Z,9.70
2018-05-14T01:57:03.459Z,9.70
2018-05-14T01:59:31.511Z,9.60
2018-05-14T02:01:59.574Z,9.30
2018-05-14T02:04:27.788Z,9.30
2018-05-14T02:06:55.913Z,9.30
2018-05-14T02:09:23.902Z,9.30
2018-05-14T02:11:52.270Z,9.20
2018-05-14T02:14:20.332Z,9.30
2018-05-14T02:16:48.390Z,9.30
2018-05-14T02:19:16.706Z,9.30
2018-05-14T02:21:44.772Z,9.20
2018-05-14T02:24:12.830Z,9.30
2018-05-14T02:26:41.224Z,9.40
2018-05-14T02:29:09.310Z,9.50
2018-05-14T02:31:37.369Z,9.50
2018-05-14T02:34:05.523Z,9.50
2018-05-14T02:36:34.019Z,9.50
2018-05-14T02:39:02.073Z,9.40
2018-05-14T02:41:30.613Z,9.40
2018-05-14T02:43:59.434Z,9.60
2018-05-14T02:46:27.489Z,9.60
2018-05-14T02:48:55.703Z,9.70
2018-05-14T02:51:24.253Z,9.70
2018-05-14T02:53:52.307Z,9.70
2018-05-14T02:56:20.848Z,9.70
2018-05-14T02:58:48.918Z,9.50
2018-05-14T03:01:19.288Z,9.30
2018-05-14T03:03:47.513Z,9.30
2018-05-14T03:06:15.567Z,9.30
2018-05-14T03:08:43.657Z,9.40
2018-05-14T03:11:12.044Z,9.50
2018-05-14T03:13:40.096Z,9.50
2018-05-14T03:16:08.166Z,9.50
2018-05-14T03:18:36.657Z,9.60
2018-05-14T03:21:04.715Z,9.60
2018-05-14T03:23:32.787Z,9.60
2018-05-14T03:26:01.386Z,9.50
2018-05-14T03:28:29.443Z,9.50
2018-05-14T03:30:57.497Z,9.60
2018-05-14T03:33:25.905Z,9.70
2018-05-14T03:35:53.975Z,9.80
2018-05-14T03:38:22.035Z,9.70
2018-05-14T03:40:50.207Z,9.80
2018-05-14T03:43:18.295Z,9.80
2018-05-14T03:45:46.341Z,9.80
2018-05-14T03:48:14.648Z,9.80
2018-05-14T03:50:42.701Z,9.70
2018-05-14T03:53:10.967Z,9.60
2018-05-14T03:55:39.075Z,9.60
2018-05-14T04:01:09.529Z,9.50
2018-05-14T04:03:49.363Z,9.50
2018-05-14T04:06:29.125Z,9.60
2018-05-14T04:08:57.588Z,9.70
2018-05-14T04:11:25.659Z,9.80
2018-05-14T04:13:53.709Z,9.70
2018-05-14T04:16:22.109Z,9.60
2018-05-14T04:18:50.163Z,9.60
2018-05-14T04:21:18.223Z,9.70
2018-05-14T04:23:46.435Z,9.80
2018-05-14T04:26:14.496Z,9.90
2018-05-14T04:28:42.547Z,10.00
2018-05-14T04:31:10.723Z,10.00
2018-05-14T04:33:39.554Z,10.00
2018-05-14T04:36:08.381Z,10.10
2018-05-14T04:38:36.888Z,10.10
2018-05-14T04:41:04.961Z,10.10
2018-05-14T04:43:33.014Z,10.10
2018-05-14T04:46:01.400Z,10.10
2018-05-14T04:48:29.462Z,10.10
2018-05-14T04:50:57.512Z,10.10
2018-05-14T04:53:26.708Z,10.10
2018-05-14T04:55:54.761Z,10.20
2018-05-14T04:58:23.585Z,10.20
2018-05-14T05:00:52.003Z,10.20
2018-05-14T05:03:20.080Z,10.20
2018-05-14T05:05:48.139Z,10.20
2018-05-14T05:08:16.535Z,10.20
2018-05-14T05:10:45.359Z,9.90
2018-05-14T05:13:13.407Z,9.80
2018-05-14T05:15:41.651Z,9.90
2018-05-14T05:18:09.708Z,9.70
2018-05-14T05:20:37.756Z,9.70
2018-05-14T05:23:06.179Z,9.90
2018-05-14T05:25:34.237Z,9.90
2018-05-14T05:28:02.284Z,9.90
2018-05-14T05:30:30.516Z,10.10
2018-05-14T05:32:58.574Z,10.10
2018-05-14T05:35:27.400Z,9.80
2018-05-14T05:37:55.838Z,9.80
2018-05-14T05:40:23.870Z,9.90
2018-05-14T05:42:51.932Z,9.70
2018-05-14T05:45:21.899Z,9.70
2018-05-14T05:47:49.980Z,9.80
2018-05-14T05:50:19.229Z,10.10
2018-05-14T05:52:47.396Z,10.10
2018-05-14T05:55:15.572Z,9.90
2018-05-14T05:57:43.626Z,10.00
2018-05-14T06:00:11.836Z,10.10
2018-05-14T06:02:39.906Z,10.30
2018-05-14T06:05:07.962Z,10.40
2018-05-14T06:07:36.376Z,10.50
2018-05-14T06:10:04.468Z,10.50
2018-05-14T06:12:33.299Z,10.60
2018-05-14T06:15:01.798Z,10.60
2018-05-14T06:17:29.906Z,10.50
2018-05-14T06:19:58.728Z,10.50
2018-05-14T06:22:27.006Z,10.50
2018-05-14T06:24:55.023Z,10.40
2018-05-14T06:27:23.091Z,10.30
2018-05-14T06:29:51.268Z,10.30
2018-05-14T06:32:19.332Z,10.30
2018-05-14T06:34:47.418Z,10.30
2018-05-14T06:37:16.345Z,10.30
2018-05-14T06:39:44.399Z,10.30
2018-05-14T06:42:13.234Z,10.50
2018-05-14T06:44:42.415Z,10.60
2018-05-14T06:47:10.473Z,10.60
2018-05-14T06:49:38.781Z,10.70
2018-05-14T06:52:06.855Z,10.70
2018-05-14T06:54:34.917Z,10.80
2018-05-14T06:57:03.485Z,10.70
2018-05-14T06:59:32.001Z,10.60
2018-05-14T07:02:00.065Z,10.60
2018-05-14T07:04:28.132Z,10.60
2018-05-14T07:06:56.526Z,10.60
2018-05-14T07:09:24.581Z,10.60
2018-05-14T07:11:52.645Z,10.60
2018-05-14T07:14:21.374Z,10.50
2018-05-14T07:16:50.199Z,10.50
2018-05-14T07:19:18.321Z,10.50
2018-05-14T07:21:46.484Z,10.50
2018-05-14T07:24:14.539Z,10.60
2018-05-14T07:26:42.589Z,10.70
2018-05-14T07:29:10.756Z,10.60
2018-05-14T07:31:38.817Z,10.60
2018-05-14T07:34:06.874Z,10.70
2018-05-14T07:36:36.148Z,10.70
2018-05-14T07:39:04.224Z,10.70
2018-05-14T07:41:32.282Z,10.70
2018-05-14T07:44:00.436Z,10.70
2018-05-14T07:46:28.494Z,10.60
2018-05-14T07:48:56.570Z,10.50
2018-05-14T07:51:24.900Z,10.40
2018-05-14T07:53:53.733Z,10.10
2018-05-14T07:56:21.806Z,10.10
2018-05-14T07:58:50.056Z,9.80
2018-05-14T08:01:18.108Z,9.80
2018-05-14T08:03:46.934Z,9.80
2018-05-14T08:06:15.172Z,9.80
2018-05-14T08:08:43.990Z,9.80
2018-05-14T08:11:12.042Z,9.80
2018-05-14T08:13:40.335Z,9.90
2018-05-14T08:16:08.384Z,9.90
2018-05-14T08:18:37.206Z,10.00
2018-05-14T08:21:05.718Z,9.90
2018-05-14T08:23:33.779Z,9.90
2018-05-14T08:26:01.856Z,9.90
2018-05-14T08:28:30.242Z,10.10
2018-05-14T08:30:58.302Z,10.20
2018-05-14T08:33:26.387Z,10.40
2018-05-14T08:35:55.066Z,10.60
2018-05-14T08:38:23.121Z,10.40
2018-05-14T08:40:51.189Z,10.50
2018-05-14T08:43:19.892Z,10.40
2018-05-14T08:45:47.947Z,10.50
2018-05-14T08:48:16.015Z,10.40
2018-05-14T08:50:44.421Z,10.50
2018-05-14T08:53:12.487Z,10.70
2018-05-14T08:55:40.553Z,10.70
2018-05-14T08:58:08.930Z,10.60
2018-05-14T09:00:37.169Z,10.80
2018-05-14T09:03:05.233Z,10.90
2018-05-14T09:05:33.762Z,11.20
2018-05-14T09:08:01.834Z,11.20
2018-05-14T09:10:29.881Z,10.90
2018-05-14T09:12:58.293Z,11.00
2018-05-14T09:15:26.347Z,10.90
2018-05-14T09:17:54.406Z,10.80
2018-05-14T09:20:22.809Z,10.80
2018-05-14T09:22:50.862Z,10.90
2018-05-14T09:25:18.938Z,11.10
2018-05-14T09:27:47.620Z,11.20
2018-05-14T09:30:15.676Z,11.40
2018-05-14T09:32:43.783Z,11.40
2018-05-14T09:35:12.138Z,11.50
2018-05-14T09:37:40.195Z,11.60
2018-05-14T09:40:08.264Z,11.80
2018-05-14T09:42:36.778Z,11.90
2018-05-14T09:45:04.842Z,11.80
2018-05-14T09:47:32.926Z,11.60
2018-05-14T09:50:01.188Z,11.60
2018-05-14T09:52:29.250Z,11.60
2018-05-14T09:54:57.316Z,11.70
2018-05-14T09:57:26.031Z,11.60
2018-05-14T09:59:54.097Z,11.80
2018-05-14T10:02:22.639Z,11.80
2018-05-14T10:04:50.866Z,12.10
2018-05-14T10:07:19.690Z,12.30
2018-05-14T10:09:47.780Z,12.30
2018-05-14T10:12:16.018Z,12.40
2018-05-14T10:14:44.849Z,12.00
2018-05-14T10:17:12.926Z,12.00
2018-05-14T10:19:41.792Z,12.40
2018-05-14T10:22:09.850Z,12.30
2018-05-14T10:24:37.992Z,12.50
2018-05-14T10:27:06.250Z,12.60
2018-05-14T10:29:34.309Z,12.70
2018-05-14T10:32:02.441Z,13.10
2018-05-14T10:34:30.598Z,13.30
2018-05-14T10:36:58.654Z,13.40
2018-05-14T10:39:26.759Z,13.40
2018-05-14T10:41:55.568Z,13.20
2018-05-14T10:44:23.636Z,13.30
2018-05-14T10:46:51.756Z,13.50
2018-05-14T10:49:20.115Z,13.50
2018-05-14T10:51:48.172Z,13.40
2018-05-14T10:54:16.255Z,13.40
2018-05-14T10:56:44.421Z,13.40
2018-05-14T10:59:12.473Z,13.70
2018-05-14T11:01:40.533Z,13.70
2018-05-14T11:04:09.633Z,13.50
2018-05-14T11:06:37.687Z,13.60
2018-05-14T11:09:05.756Z,13.30
2018-05-14T11:11:34.327Z,13.40
2018-05-14T11:14:03.152Z,13.60
2018-05-14T11:16:31.217Z,13.60
2018-05-14T11:18:59.745Z,13.60
2018-05-14T11:21:27.809Z,13.80
2018-05-14T11:23:55.856Z,13.80
2018-05-14T11:26:24.276Z,13.90
2018-05-14T11:28:52.333Z,13.80
2018-05-14T11:31:20.393Z,13.80
2018-05-14T11:33:48.839Z,13.80
2018-05-14T11:36:16.886Z,13.80
2018-05-14T11:38:45.706Z,13.70
2018-05-14T11:41:13.910Z,13.70
2018-05-14T11:43:41.968Z,13.80
2018-05-14T11:46:10.024Z,13.80
2018-05-14T11:48:38.468Z,13.70
2018-05-14T11:51:07.289Z,13.80
2018-05-14T11:53:35.356Z,13.70
2018-05-14T11:56:03.892Z,13.80
2018-05-14T11:58:31.950Z,13.40
2018-05-14T12:01:00.016Z,13.10
2018-05-14T12:03:28.391Z,13.00
2018-05-14T12:05:56.936Z,13.00
2018-05-14T12:08:24.991Z,13.10
2018-05-14T12:10:53.239Z,13.20
2018-05-14T12:13:21.300Z,13.30
2018-05-14T12:15:49.364Z,13.30
2018-05-14T12:18:17.751Z,13.30
2018-05-14T12:20:45.813Z,13.20
2018-05-14T12:23:13.883Z,13.30
2018-05-14T12:25:42.591Z,13.40
2018-05-14T12:28:10.624Z,13.50
2018-05-14T12:30:38.698Z,13.60
2018-05-14T12:33:07.089Z,13.60
2018-05-14T12:35:35.144Z,13.70
2018-05-14T12:38:03.205Z,13.70
2018-05-14T12:40:31.610Z,13.50
2018-05-14T12:42:59.676Z,13.10
2018-05-14T12:45:27.729Z,13.40
2018-05-14T12:47:56.127Z,13.50
2018-05-14T12:50:24.195Z,13.70
2018-05-14T12:52:52.288Z,13.80
2018-05-14T12:55:20.641Z,13.80
2018-05-14T12:57:48.705Z,13.20
2018-05-14T13:00:16.796Z,13.30
2018-05-14T13:02:45.203Z,13.30
2018-05-14T13:05:14.027Z,13.40
2018-05-14T13:07:42.598Z,13.40
2018-05-14T13:10:11.847Z,13.00
2018-05-14T13:12:39.896Z,13.00
2018-05-14T13:15:07.961Z,13.20
2018-05-14T13:17:36.668Z,13.30
2018-05-14T13:20:04.755Z,13.10
2018-05-14T13:22:32.806Z,13.00
2018-05-14T13:25:01.186Z,12.90
2018-05-14T13:27:29.302Z,13.00
2018-05-14T13:29:58.132Z,13.00
2018-05-14T13:32:26.321Z,13.00
2018-05-14T13:34:54.399Z,13.00
2018-05-14T13:37:22.465Z,12.90
2018-05-14T13:39:50.695Z,12.90
2018-05-14T13:42:18.759Z,12.90
2018-05-14T13:44:46.809Z,13.00
2018-05-14T13:47:15.368Z,12.80
2018-05-14T13:49:43.437Z,12.60
2018-05-14T13:52:11.503Z,12.70
2018-05-14T13:54:40.196Z,12.80
2018-05-14T13:57:08.260Z,12.90
2018-05-14T13:59:36.339Z,12.90
2018-05-14T14:02:04.748Z,12.80
2018-05-14T14:04:33.575Z,12.80
2018-05-14T14:07:01.641Z,12.80
2018-05-14T14:09:30.627Z,12.70
2018-05-14T14:11:58.687Z,12.80
2018-05-14T14:14:26.755Z,12.70
2018-05-14T14:16:55.330Z,12.70
2018-05-14T14:19:23.368Z,12.70
2018-05-14T14:21:51.422Z,12.80
2018-05-14T14:24:19.894Z,12.80
2018-05-14T14:26:47.940Z,12.80
2018-05-14T14:29:16.008Z,12.80
2018-05-14T14:31:44.346Z,12.80
2018-05-14T14:34:12.402Z,12.80
2018-05-14T14:36:40.464Z,12.80
2018-05-14T14:39:08.708Z,12.70
2018-05-14T14:41:36.760Z,12.80
2018-05-14T14:44:04.820Z,12.70
2018-05-14T14:46:33.086Z,12.70
2018-05-14T14:49:01.143Z,12.70
2018-05-14T14:51:29.195Z,12.50
2018-05-14T14:53:57.444Z,12.40
2018-05-14T14:56:25.510Z,12.20
2018-05-14T14:58:53.588Z,12.20
2018-05-14T15:01:21.795Z,12.00
2018-05-14T15:03:49.870Z,12.00
2018-05-14T15:06:17.950Z,12.10
2018-05-14T15:08:46.074Z,12.20
2018-05-14T15:11:14.560Z,12.20
2018-05-14T15:13:42.676Z,12.20
2018-05-14T15:16:11.046Z,12.20
2018-05-14T15:18:39.116Z,12.20
2018-05-14T15:21:07.199Z,12.00
2018-05-14T15:23:35.678Z,12.00
2018-05-14T15:26:03.757Z,12.00
2018-05-14T15:28:31.865Z,12.10
2018-05-14T15:31:00.193Z,12.10
2018-05-14T15:33:28.262Z,12.10
2018-05-14T15:35:56.339Z,12.20
2018-05-14T15:38:24.773Z,12.30
2018-05-14T15:40:52.845Z,12.20
2018-05-14T15:43:20.938Z,12.30
2018-05-14T15:45:49.233Z,12.10
2018-05-14T15:48:17.296Z,12.20
2018-05-14T15:50:45.389Z,12.20
2018-05-14T15:53:14.070Z,11.80
2018-05-14T15:55:42.135Z,11.90
2018-05-14T15:58:10.229Z,12.00
2018-05-14T16:00:39.206Z,11.80
2018-05-14T16:03:07.271Z,11.80
2018-05-14T16:05:35.350Z,11.70
2018-05-14T16:08:03.724Z,11.90
2018-05-14T16:10:31.786Z,11.90
2018-05-14T16:13:00.524Z,11.90
2018-05-14T16:15:29.414Z,11.90
2018-05-14T16:17:57.472Z,11.90
2018-05-14T16:20:25.559Z,11.80
2018-05-14T16:22:53.672Z,11.70
2018-05-14T16:25:21.739Z,11.80
2018-05-14T16:27:49.812Z,11.60
2018-05-14T16:30:17.948Z,11.70
2018-05-14T16:32:46.026Z,11.60
2018-05-14T16:35:14.210Z,11.60
2018-05-14T16:37:42.457Z,11.70
2018-05-14T16:40:10.536Z,11.70
2018-05-14T16:42:38.598Z,11.80
2018-05-14T16:45:06.774Z,11.90
2018-05-14T16:47:34.848Z,12.00
2018-05-14T16:50:02.905Z,11.90
2018-05-14T16:52:31.148Z,11.90
2018-05-14T16:54:59.219Z,11.90
2018-05-14T16:57:27.300Z,12.00
2018-05-14T16:59:55.691Z,12.00
2018-05-14T17:02:24.541Z,11.80
2018-05-14T17:04:52.616Z,11.90
2018-05-14T17:07:20.732Z,11.90
2018-05-14T17:09:48.820Z,11.80
2018-05-14T17:12:16.887Z,11.70
2018-05-14T17:14:45.803Z,11.70
2018-05-14T17:17:13.867Z,11.70
2018-05-14T17:19:41.938Z,11.60
2018-05-14T17:22:10.157Z,11.60
2018-05-14T17:24:38.232Z,11.80
2018-05-14T17:27:06.308Z,11.70
2018-05-14T17:29:34.688Z,11.80
2018-05-14T17:32:03.533Z,11.70
2018-05-14T17:34:31.613Z,11.70
2018-05-14T17:36:59.822Z,11.70
2018-05-14T17:39:27.887Z,11.70
2018-05-14T17:41:55.957Z,11.70
2018-05-14T17:44:24.337Z,11.70
2018-05-14T17:46:52.410Z,11.60
2018-05-14T17:49:20.468Z,11.60
2018-05-14T17:51:48.857Z,11.50
2018-05-14T17:54:16.925Z,11.60
2018-05-14T17:56:45.030Z,11.60
2018-05-14T17:59:13.373Z,11.60
2018-05-14T18:01:41.441Z,11.60
2018-05-14T18:04:09.551Z,11.60
2018-05-14T18:06:38.205Z,11.70
2018-05-14T18:09:06.271Z,11.70
2018-05-14T18:11:34.348Z,11.60
2018-05-14T18:14:02.801Z,11.70
2018-05-14T18:16:31.274Z,11.60
2018-05-14T18:18:59.364Z,11.60
2018-05-14T18:21:33.255Z,11.60
2018-05-14T18:24:01.327Z,11.60
2018-05-14T18:26:46.115Z,11.60
2018-05-14T18:29:19.937Z,11.60
2018-05-14T18:31:54.075Z,11.70
2018-05-14T18:34:27.723Z,11.80
2018-05-14T18:36:56.223Z,11.90
2018-05-14T18:39:24.295Z,12.00
2018-05-14T18:41:52.375Z,12.00
2018-05-14T18:44:27.127Z,12.10
2018-05-14T18:46:55.199Z,12.10
2018-05-14T18:49:23.318Z,12.10
2018-05-14T18:51:51.498Z,12.10
2018-05-14T18:54:19.468Z,12.10
2018-05-14T18:56:47.896Z,12.00
2018-05-14T18:59:15.998Z,12.00
2018-05-14T19:01:44.098Z,12.00
2018-05-14T19:04:12.222Z,11.90
2018-05-14T19:06:40.299Z,12.00
2018-05-14T19:09:08.390Z,12.00
2018-05-14T19:11:42.215Z,12.10
2018-05-14T19:14:10.292Z,12.10
2018-05-14T19:16:44.278Z,12.10
2018-05-14T19:19:12.420Z,12.00
2018-05-14T19:21:40.860Z,12.00
2018-05-14T19:24:08.924Z,12.10
2018-05-14T19:26:36.996Z,12.20
2018-05-14T19:29:21.045Z,12.20
2018-05-14T19:31:49.104Z,12.20
2018-05-14T19:34:23.122Z,12.30
2018-05-14T19:36:51.182Z,12.20
2018-05-14T19:39:25.069Z,12.20
2018-05-14T19:41:53.140Z,12.20
2018-05-14T19:44:21.520Z,12.30
2018-05-14T19:46:49.617Z,12.30
2018-05-14T19:49:17.726Z,12.30
2018-05-14T19:51:46.048Z,12.30
2018-05-14T19:54:14.150Z,12.30
2018-05-14T19:56:42.209Z,12.30
2018-05-14T19:59:10.564Z,12.20
2018-05-14T20:01:38.658Z,12.00
2018-05-14T20:04:06.723Z,11.90
2018-05-14T20:06:34.995Z,11.80
2018-05-14T20:09:03.117Z,11.80
2018-05-14T20:11:31.179Z,11.80
2018-05-14T20:14:00.445Z,11.80
2018-05-14T20:16:28.525Z,11.90
2018-05-14T20:18:57.071Z,11.90
2018-05-14T20:21:25.609Z,11.90
2018-05-14T20:23:53.645Z,11.80
2018-05-14T20:26:21.725Z,11.80
2018-05-14T20:28:49.910Z,11.80
2018-05-14T20:31:18.048Z,11.80
2018-05-14T20:33:46.045Z,11.80
2018-05-14T20:36:14.167Z,11.80
2018-05-14T20:38:42.241Z,11.80
2018-05-14T20:41:10.335Z,11.80
2018-05-14T20:43:39.218Z,11.90
2018-05-14T20:46:07.297Z,11.90
2018-05-14T20:48:35.389Z,11.90
2018-05-14T20:51:04.000Z,11.90
2018-05-14T20:53:32.845Z,11.90
2018-05-14T20:56:00.916Z,12.00
2018-05-14T20:58:30.329Z,11.90
2018-05-14T21:00:58.410Z,11.90
2018-05-14T21:03:26.479Z,11.90
2018-05-14T21:05:54.646Z,11.90
2018-05-14T21:08:22.726Z,11.90
2018-05-14T21:10:50.900Z,11.90
2018-05-14T21:13:19.368Z,11.90
2018-05-14T21:15:47.438Z,11.90
2018-05-14T21:18:15.500Z,11.90
2018-05-14T21:20:44.364Z,11.90
2018-05-14T21:23:12.426Z,11.90
2018-05-14T21:25:40.498Z,11.90
2018-05-14T21:28:08.744Z,11.90
2018-05-14T21:30:38.024Z,11.80
2018-05-14T21:33:06.090Z,11.80
2018-05-14T21:35:34.173Z,11.80
2018-05-14T21:38:02.541Z,11.90
2018-05-14T21:40:30.610Z,11.90
2018-05-14T21:42:58.696Z,11.90
2018-05-14T21:45:27.107Z,11.80
2018-05-14T21:47:55.165Z,11.90
2018-05-14T21:50:24.046Z,11.90
2018-05-14T21:52:52.489Z,11.90
2018-05-14T21:55:20.559Z,11.80
2018-05-14T21:57:48.637Z,11.80
2018-05-14T22:00:17.023Z,11.90
2018-05-14T22:02:45.077Z,11.80
2018-05-14T22:05:13.171Z,11.80
2018-05-14T22:07:41.844Z,11.80
2018-05-14T22:10:09.909Z,11.70
2018-05-14T22:12:37.977Z,11.70
2018-05-14T22:15:06.664Z,11.70
2018-05-14T22:17:34.746Z,11.70
2018-05-14T22:20:02.803Z,11.80
2018-05-14T22:22:32.138Z,11.70
2018-05-14T22:25:00.164Z,11.80
2018-05-14T22:27:28.225Z,11.80
2018-05-14T22:29:56.648Z,11.80
2018-05-14T22:32:24.711Z,11.70
2018-05-14T22:34:52.797Z,11.80
2018-05-14T22:37:20.980Z,11.70
2018-05-14T22:39:49.028Z,11.80
2018-05-14T22:42:17.097Z,11.80
2018-05-14T22:44:45.208Z,11.70
2018-05-14T22:47:13.263Z,11.70
2018-05-14T22:49:42.099Z,11.80
2018-05-14T22:52:10.497Z,11.80
2018-05-14T22:54:38.573Z,11.80
2018-05-14T22:57:06.644Z,11.80
2018-05-14T22:59:35.030Z,11.80
2018-05-14T23:02:03.096Z,11.70
2018-05-14T23:04:31.157Z,11.70
2018-05-14T23:06:59.547Z,11.70
2018-05-14T23:09:27.612Z,11.70
2018-05-14T23:11:55.678Z,11.80
2018-05-14T23:14:24.145Z,11.90
2018-05-14T23:16:52.195Z,11.70
2018-05-14T23:19:20.262Z,11.80
2018-05-14T23:21:48.932Z,11.80
2018-05-14T23:24:18.160Z,11.80
2018-05-14T23:26:46.218Z,11.80
2018-05-14T23:29:14.666Z,11.80
2018-05-14T23:31:43.492Z,11.90
2018-05-14T23:34:11.566Z,11.90
2018-05-14T23:36:40.088Z,11.90
2018-05-14T23:39:08.189Z,11.90
2018-05-14T23:41:37.007Z,11.80
2018-05-14T23:44:05.529Z,11.90
2018-05-14T23:46:33.620Z,11.90
2018-05-14T23:49:01.681Z,11.80
2018-05-14T23:51:29.840Z,11.80
2018-05-14T23:53:57.936Z,11.80
2018-05-14T23:56:26.003Z,11.80
2018-05-14T23:58:54.573Z,11.80
